createdAt,value
2023-02-05T00:00:04.600Z,100105.50
2023-02-05T00:02:33.479Z,100099.97
2023-02-05T00:05:02.221Z,100106.44
2023-02-05T00:07:32.512Z,100105.47
2023-02-05T00:10:00.763Z,100103.44
2023-02-05T00:12:29.536Z,100118.03
2023-02-05T00:14:58.641Z,100116.56
2023-02-05T00:17:27.024Z,100109.63
2023-02-05T00:19:55.707Z,100102.34
2023-02-05T00:22:24.516Z,100106.19
2023-02-05T00:24:54.530Z,100107.94
2023-02-05T00:27:23.229Z,100103.50
2023-02-05T00:29:51.798Z,100098.41
2023-02-05T00:32:20.165Z,100091.91
2023-02-05T00:34:48.381Z,100091.19
2023-02-05T00:37:16.938Z,100079.34
2023-02-05T00:39:45.368Z,100094.81
2023-02-05T00:42:15.356Z,100078.91
2023-02-05T00:44:43.654Z,100087.75
2023-02-05T00:47:12.805Z,100080.19
2023-02-05T00:49:41.074Z,100081.59
2023-02-05T00:52:09.399Z,100090.13
2023-02-05T00:54:39.151Z,100088.19
2023-02-05T00:57:08.512Z,100088.91
2023-02-05T00:59:38.234Z,100095.28
2023-02-05T01:02:07.382Z,100102.69
2023-02-05T01:04:36.060Z,100098.84
2023-02-05T01:07:04.274Z,100107.63
2023-02-05T01:09:32.555Z,100109.59
2023-02-05T01:12:01.007Z,100112.78
2023-02-05T01:14:29.177Z,100101.38
2023-02-05T01:16:59.081Z,100108.81
2023-02-05T01:19:27.678Z,100103.34
2023-02-05T01:21:55.841Z,100100.84
2023-02-05T01:24:24.180Z,100100.28
2023-02-05T01:26:53.902Z,100110.16
2023-02-05T01:29:22.334Z,100095.25
2023-02-05T01:31:50.600Z,100094.44
2023-02-05T01:34:20.401Z,100096.41
2023-02-05T01:36:49.007Z,100093.72
2023-02-05T01:39:17.444Z,100096.16
2023-02-05T01:41:46.094Z,100096.91
2023-02-05T01:44:18.594Z,100094.28
2023-02-05T01:46:48.491Z,100086.97
2023-02-05T01:49:23.668Z,100086.75
2023-02-05T01:51:52.907Z,100075.38
2023-02-05T01:54:23.989Z,100072.25
2023-02-05T01:56:56.725Z,100075.03
2023-02-05T01:59:28.873Z,100071.94
2023-02-05T02:01:57.897Z,100055.09
2023-02-05T02:04:37.728Z,100052.84
2023-02-05T02:07:09.162Z,100055.50
2023-02-05T02:09:39.754Z,100056.19
2023-02-05T02:12:09.700Z,100063.31
2023-02-05T02:14:41.949Z,100053.09
2023-02-05T02:17:12.069Z,100048.25
2023-02-05T02:19:47.166Z,100052.75
2023-02-05T02:22:39.039Z,100051.19
2023-02-05T02:25:47.047Z,100045.97
2023-02-05T02:28:22.257Z,100024.88
2023-02-05T02:30:58.162Z,100030.38
2023-02-05T02:33:33.864Z,100021.25
2023-02-05T02:36:10.644Z,100020.72
2023-02-05T02:38:44.731Z,100017.13
2023-02-05T02:41:18.768Z,100023.63
2023-02-05T02:43:54.049Z,100018.19
2023-02-05T02:46:26.300Z,100015.03
2023-02-05T02:48:58.208Z,100016.28
2023-02-05T02:51:28.939Z,100026.25
2023-02-05T02:53:59.443Z,100026.25
2023-02-05T02:56:30.866Z,100022.09
2023-02-05T02:59:06.353Z,100011.94
2023-02-05T03:01:41.061Z,100011.81
2023-02-05T03:04:13.572Z,100016.94
2023-02-05T03:06:45.291Z,100029.94
2023-02-05T03:09:20.867Z,100024.50
2023-02-05T03:11:49.384Z,100029.13
2023-02-05T03:14:19.440Z,100041.63
2023-02-05T03:16:47.683Z,100031.47
2023-02-05T03:19:15.917Z,100029.31
2023-02-05T03:21:48.065Z,100021.66
2023-02-05T03:24:17.082Z,100016.97
2023-02-05T03:26:45.465Z,100009.63
2023-02-05T03:29:16.897Z,100001.13
2023-02-05T03:31:53.486Z,99993.31
2023-02-05T03:34:38.823Z,100020.47
2023-02-05T03:37:16.583Z,100008.69
2023-02-05T03:39:55.005Z,100002.88
2023-02-05T03:42:35.180Z,100002.31
2023-02-05T03:45:29.028Z,100000.00
2023-02-05T03:48:13.955Z,99998.22
2023-02-05T03:50:51.334Z,99987.91
2023-02-05T03:53:27.543Z,99983.75
2023-02-05T03:56:04.841Z,99982.88
2023-02-05T03:58:37.981Z,99978.91
2023-02-05T04:01:07.442Z,99973.13
2023-02-05T04:03:37.990Z,99976.59
2023-02-05T04:06:07.245Z,99978.63
2023-02-05T04:08:35.740Z,99984.53
2023-02-05T04:11:04.428Z,99958.03
2023-02-05T04:13:33.064Z,99980.84
2023-02-05T04:16:01.558Z,99975.06
2023-02-05T04:18:30.047Z,99967.16
2023-02-05T04:21:00.782Z,99970.78
2023-02-05T04:23:29.314Z,99973.31
2023-02-05T04:25:57.518Z,99977.59
2023-02-05T04:28:25.836Z,99974.19
2023-02-05T04:30:54.199Z,99971.31
2023-02-05T04:33:22.959Z,99961.81
2023-02-05T04:35:51.236Z,99966.75
2023-02-05T04:38:20.993Z,99971.66
2023-02-05T04:40:49.337Z,99968.88
2023-02-05T04:43:17.939Z,99977.47
2023-02-05T04:45:46.486Z,99985.13
2023-02-05T04:48:14.840Z,99991.00
2023-02-05T04:50:43.333Z,100006.34
2023-02-05T04:53:11.711Z,100007.34
2023-02-05T04:55:41.401Z,99994.19
2023-02-05T04:58:09.299Z,99982.22
2023-02-05T05:00:37.594Z,99984.94
2023-02-05T05:03:05.699Z,99990.22
2023-02-05T05:05:36.610Z,99990.88
2023-02-05T05:08:04.836Z,99984.41
2023-02-05T05:10:32.949Z,99994.59
2023-02-05T05:13:02.219Z,99996.50
2023-02-05T05:15:30.487Z,99996.03
2023-02-05T05:17:58.618Z,99994.78
2023-02-05T05:20:26.700Z,99997.88
2023-02-05T05:22:54.832Z,99995.69
2023-02-05T05:25:22.878Z,99989.94
2023-02-05T05:27:51.247Z,99984.59
2023-02-05T05:30:21.568Z,99996.19
2023-02-05T05:32:49.683Z,99981.41
2023-02-05T05:35:17.748Z,99990.41
2023-02-05T05:37:45.766Z,99973.28
2023-02-05T05:40:31.809Z,99985.88
2023-02-05T05:43:17.000Z,99986.25
2023-02-05T05:45:46.532Z,99996.03
2023-02-05T05:48:14.563Z,99997.44
2023-02-05T05:50:42.610Z,99986.59
2023-02-05T05:53:10.951Z,99969.31
2023-02-05T05:55:39.551Z,99970.97
2023-02-05T05:58:08.674Z,99972.53
2023-02-05T06:00:37.813Z,99976.28
2023-02-05T06:03:07.711Z,99984.94
2023-02-05T06:05:36.064Z,99981.41
2023-02-05T06:08:04.813Z,99993.16
2023-02-05T06:10:33.223Z,99997.63
2023-02-05T06:13:01.492Z,99993.75
2023-02-05T06:15:30.051Z,99995.59
2023-02-05T06:17:58.221Z,99991.16
2023-02-05T06:20:28.145Z,99985.63
2023-02-05T06:22:56.428Z,99980.16
2023-02-05T06:25:24.675Z,99985.41
2023-02-05T06:27:52.915Z,99983.53
2023-02-05T06:30:21.070Z,99983.75
2023-02-05T06:32:49.261Z,99977.19
2023-02-05T06:35:17.324Z,99976.31
2023-02-05T06:37:47.792Z,99970.69
2023-02-05T06:40:18.165Z,99968.44
2023-02-05T06:42:46.568Z,99971.16
2023-02-05T06:45:14.541Z,99964.78
2023-02-05T06:47:42.738Z,99960.16
2023-02-05T06:50:11.413Z,99966.72
2023-02-05T06:52:39.803Z,99965.00
2023-02-05T06:55:11.587Z,99968.16
2023-02-05T06:57:39.618Z,99958.00
2023-02-05T07:00:09.184Z,99962.06
2023-02-05T07:02:37.263Z,99969.03
2023-02-05T07:05:05.535Z,99968.25
2023-02-05T07:07:34.483Z,99970.88
2023-02-05T07:10:03.810Z,99981.22
2023-02-05T07:12:33.847Z,99991.88
2023-02-05T07:15:02.006Z,99996.69
2023-02-05T07:17:30.084Z,99983.09
2023-02-05T07:19:58.866Z,99983.66
2023-02-05T07:22:27.143Z,99988.47
2023-02-05T07:24:55.433Z,99993.97
2023-02-05T07:27:23.536Z,99993.19
2023-02-05T07:29:53.131Z,99979.28
2023-02-05T07:32:21.205Z,99970.47
2023-02-05T07:34:49.481Z,99967.31
2023-02-05T07:37:18.440Z,99962.94
2023-02-05T07:39:46.997Z,99969.81
2023-02-05T07:42:15.126Z,99951.22
2023-02-05T07:44:43.528Z,99957.78
2023-02-05T07:47:13.152Z,99952.19
2023-02-05T07:49:41.302Z,99939.97
2023-02-05T07:52:09.525Z,99934.13
2023-02-05T07:54:37.368Z,99933.72
2023-02-05T07:57:06.942Z,99926.28
2023-02-05T07:59:35.149Z,99923.34
2023-02-05T08:02:03.211Z,99929.00
2023-02-05T08:04:32.897Z,99927.69
2023-02-05T08:07:00.934Z,99931.09
2023-02-05T08:09:28.895Z,99915.38
2023-02-05T08:11:57.167Z,99917.78
2023-02-05T08:14:25.271Z,99906.50
2023-02-05T08:16:53.528Z,99906.66
2023-02-05T08:19:21.546Z,99898.03
2023-02-05T08:21:51.125Z,99889.16
2023-02-05T08:24:19.742Z,99882.88
2023-02-05T08:26:47.675Z,99881.78
2023-02-05T08:29:15.949Z,99884.09
2023-02-05T08:31:44.335Z,99869.50
2023-02-05T08:34:12.842Z,99878.34
2023-02-05T08:36:40.806Z,99877.97
2023-02-05T08:39:10.349Z,99874.66
2023-02-05T08:41:38.588Z,99872.97
2023-02-05T08:44:07.388Z,99883.19
2023-02-05T08:46:48.851Z,99885.94
2023-02-05T08:49:18.483Z,99885.91
2023-02-05T08:51:46.862Z,99885.59
2023-02-05T08:54:16.686Z,99881.91
2023-02-05T08:56:46.744Z,99879.34
2023-02-05T08:59:15.298Z,99880.94
2023-02-05T09:01:44.687Z,99874.03
2023-02-05T09:04:15.759Z,99872.72
2023-02-05T09:06:44.935Z,99869.97
2023-02-05T09:09:13.757Z,99863.75
2023-02-05T09:11:43.754Z,99851.06
2023-02-05T09:14:12.028Z,99860.94
2023-02-05T09:16:40.600Z,99840.94
2023-02-05T09:19:09.144Z,99838.38
2023-02-05T09:21:37.395Z,99825.06
2023-02-05T09:24:06.287Z,99821.09
2023-02-05T09:26:34.712Z,99818.31
2023-02-05T09:29:04.801Z,99819.06
2023-02-05T09:31:33.294Z,99817.91
2023-02-05T09:34:03.661Z,99815.69
2023-02-05T09:36:32.107Z,99817.69
2023-02-05T09:39:13.485Z,99811.03
2023-02-05T09:41:53.522Z,99811.84
2023-02-05T09:44:41.465Z,99814.44
2023-02-05T09:47:17.508Z,99810.13
2023-02-05T09:49:54.632Z,99806.88
2023-02-05T09:52:27.622Z,99804.16
2023-02-05T09:54:59.984Z,99792.19
2023-02-05T09:57:40.705Z,99783.44
2023-02-05T10:00:21.089Z,99781.25
2023-02-05T10:02:54.785Z,99791.53
2023-02-05T10:05:29.314Z,99787.34
2023-02-05T10:08:03.937Z,99798.44
2023-02-05T10:10:39.871Z,99793.97
2023-02-05T10:13:28.027Z,99792.38
2023-02-05T10:16:23.381Z,99781.38
2023-02-05T10:19:18.053Z,99782.28
2023-02-05T10:21:53.560Z,99784.63
2023-02-05T10:24:41.355Z,99778.97
2023-02-05T10:27:18.835Z,99768.25
2023-02-05T10:29:55.345Z,99756.66
2023-02-05T10:32:26.629Z,99757.78
2023-02-05T10:34:58.184Z,99762.09
2023-02-05T10:37:35.745Z,99753.91
2023-02-05T10:40:12.273Z,99746.91
2023-02-05T10:42:46.046Z,99742.03
2023-02-05T10:45:21.109Z,99739.88
2023-02-05T10:48:05.254Z,99733.47
2023-02-05T10:50:47.509Z,99730.66
2023-02-05T10:53:19.314Z,99725.41
2023-02-05T10:55:47.589Z,99735.75
2023-02-05T10:58:32.378Z,99733.41
2023-02-05T11:01:01.687Z,99714.69
2023-02-05T11:03:31.297Z,99715.22
2023-02-05T11:05:59.750Z,99710.03
2023-02-05T11:08:36.741Z,99708.91
2023-02-05T11:11:07.057Z,99707.53
2023-02-05T11:13:51.716Z,99717.25
2023-02-05T11:16:20.142Z,99700.47
2023-02-05T11:18:59.332Z,99700.19
2023-02-05T11:21:48.995Z,99696.81
2023-02-05T11:24:30.017Z,99681.69
2023-02-05T11:27:29.799Z,99687.47
2023-02-05T11:30:01.021Z,99692.41
2023-02-05T11:32:37.270Z,99695.75
2023-02-05T11:35:23.697Z,99697.91
2023-02-05T11:38:02.336Z,99703.75
2023-02-05T11:40:33.861Z,99715.97
2023-02-05T11:43:07.167Z,99719.16
2023-02-05T11:45:39.477Z,99700.19
2023-02-05T11:48:23.553Z,99708.59
2023-02-05T11:50:54.116Z,99716.34
2023-02-05T11:53:22.997Z,99705.38
2023-02-05T11:55:56.796Z,99696.41
2023-02-05T11:58:36.608Z,99698.34
2023-02-05T12:01:07.978Z,99700.13
2023-02-05T12:03:37.428Z,99693.56
2023-02-05T12:06:23.137Z,99695.59
2023-02-05T12:08:53.958Z,99680.25
2023-02-05T12:11:57.430Z,99685.31
2023-02-05T12:14:34.726Z,99682.88
2023-02-05T12:17:16.157Z,99678.88
2023-02-05T12:19:51.296Z,99663.69
2023-02-05T12:22:32.060Z,99672.06
2023-02-05T12:25:10.727Z,99658.03
2023-02-05T12:27:54.537Z,99645.28
2023-02-05T12:30:36.592Z,99636.31
2023-02-05T12:33:21.520Z,99640.03
2023-02-05T12:36:01.986Z,99630.44
2023-02-05T12:38:48.330Z,99629.09
2023-02-05T12:41:32.018Z,99619.22
2023-02-05T12:44:11.106Z,99616.84
2023-02-05T12:47:02.193Z,99612.09
2023-02-05T12:49:46.424Z,99604.28
2023-02-05T12:52:24.976Z,99607.34
2023-02-05T12:55:05.713Z,99599.06
2023-02-05T12:57:40.488Z,99603.00
2023-02-05T13:00:15.879Z,99598.84
2023-02-05T13:02:53.717Z,99601.56
2023-02-05T13:05:26.708Z,99599.38
2023-02-05T13:08:01.740Z,99598.81
2023-02-05T13:10:39.814Z,99601.47
2023-02-05T13:13:15.998Z,99600.44
2023-02-05T13:15:51.099Z,99608.09
2023-02-05T13:18:24.367Z,99599.41
2023-02-05T13:21:14.729Z,99614.59
2023-02-05T13:24:02.742Z,99617.84
2023-02-05T13:26:55.206Z,99616.47
2023-02-05T13:29:28.290Z,99609.16
2023-02-05T13:32:04.321Z,99613.72
2023-02-05T13:34:41.506Z,99613.47
2023-02-05T13:37:25.728Z,99617.69
2023-02-05T13:40:23.260Z,99623.03
2023-02-05T13:43:14.711Z,99619.97
2023-02-05T13:46:12.246Z,99626.88
2023-02-05T13:49:04.256Z,99635.22
2023-02-05T13:51:57.118Z,99643.44
2023-02-05T13:55:09.009Z,99631.03
2023-02-05T13:58:15.458Z,99630.91
2023-02-05T14:00:47.124Z,99628.81
2023-02-05T14:03:35.047Z,99621.84
2023-02-05T14:06:22.789Z,99619.22
2023-02-05T14:08:58.425Z,99616.69
2023-02-05T14:11:27.477Z,99612.22
2023-02-05T14:14:30.806Z,99615.72
2023-02-05T14:17:02.674Z,99616.31
2023-02-05T14:19:58.438Z,99606.94
2023-02-05T14:22:39.199Z,99611.22
2023-02-05T14:25:42.567Z,99612.03
2023-02-05T14:28:35.587Z,99610.41
2023-02-05T14:31:04.543Z,99612.91
2023-02-05T14:33:39.148Z,99601.72
2023-02-05T14:36:33.235Z,99608.50
2023-02-05T14:39:04.803Z,99608.72
2023-02-05T14:41:50.675Z,99615.38
2023-02-05T14:44:25.788Z,99630.72
2023-02-05T14:47:00.145Z,99629.72
2023-02-05T14:49:38.072Z,99635.50
2023-02-05T14:52:09.517Z,99636.31
2023-02-05T14:54:46.299Z,99640.47
2023-02-05T14:57:22.305Z,99644.88
2023-02-05T14:59:56.350Z,99640.63
2023-02-05T15:03:01.353Z,99642.34
2023-02-05T15:05:37.814Z,99645.56
2023-02-05T15:08:16.466Z,99655.91
2023-02-05T15:10:50.737Z,99649.88
2023-02-05T15:13:22.499Z,99655.81
2023-02-05T15:16:20.121Z,99662.63
2023-02-05T15:18:51.300Z,99654.13
2023-02-05T15:21:27.926Z,99659.88
2023-02-05T15:24:03.727Z,99662.53
2023-02-05T15:26:41.522Z,99665.00
2023-02-05T15:29:16.142Z,99670.03
2023-02-05T15:31:49.543Z,99664.91
2023-02-05T15:34:36.295Z,99677.66
2023-02-05T15:37:16.074Z,99676.00
2023-02-05T15:39:49.518Z,99684.56
2023-02-05T15:42:20.785Z,99686.16
2023-02-05T15:44:48.917Z,99678.56
2023-02-05T15:47:22.171Z,99685.38
2023-02-05T15:49:53.167Z,99694.59
2023-02-05T15:52:25.580Z,99686.94
2023-02-05T15:54:58.794Z,99686.00
2023-02-05T15:57:29.988Z,99686.78
2023-02-05T16:00:01.009Z,99691.81
2023-02-05T16:02:30.480Z,99673.72
2023-02-05T16:05:01.563Z,99684.81
2023-02-05T16:07:37.206Z,99693.00
2023-02-05T16:10:17.593Z,99686.97
2023-02-05T16:12:59.006Z,99689.50
2023-02-05T16:15:29.842Z,99692.75
2023-02-05T16:17:59.932Z,99691.94
2023-02-05T16:20:30.847Z,99702.09
2023-02-05T16:23:02.636Z,99707.16
2023-02-05T16:25:45.117Z,99708.91
2023-02-05T16:28:18.363Z,99694.22
2023-02-05T16:30:47.613Z,99714.13
2023-02-05T16:33:27.975Z,99710.72
2023-02-05T16:35:58.103Z,99715.69
2023-02-05T16:38:30.843Z,99716.75
2023-02-05T16:41:01.414Z,99716.63
2023-02-05T16:43:36.960Z,99718.09
2023-02-05T16:46:24.275Z,99710.38
2023-02-05T16:48:54.300Z,99715.22
2023-02-05T16:51:52.550Z,99713.31
2023-02-05T16:54:32.500Z,99711.47
2023-02-05T16:57:08.582Z,99708.59
2023-02-05T16:59:41.077Z,99704.09
2023-02-05T17:02:29.204Z,99727.56
2023-02-05T17:04:58.911Z,99738.44
2023-02-05T17:07:29.406Z,99738.00
2023-02-05T17:10:15.297Z,99750.50
2023-02-05T17:12:54.033Z,99761.91
2023-02-05T17:15:33.873Z,99769.25
2023-02-05T17:18:06.435Z,99772.41
2023-02-05T17:20:35.115Z,99783.41
2023-02-05T17:23:11.096Z,99785.28
2023-02-05T17:25:44.099Z,99774.31
2023-02-05T17:28:17.784Z,99770.97
2023-02-05T17:30:47.544Z,99765.34
2023-02-05T17:33:19.025Z,99757.72
2023-02-05T17:35:47.480Z,99758.50
2023-02-05T17:38:16.365Z,99758.44
2023-02-05T17:40:46.701Z,99757.63
2023-02-05T17:43:15.261Z,99759.59
2023-02-05T17:45:44.485Z,99756.88
2023-02-05T17:48:12.848Z,99748.19
2023-02-05T17:50:41.150Z,99762.03
2023-02-05T17:53:14.241Z,99763.00
2023-02-05T17:55:42.785Z,99758.84
2023-02-05T17:58:12.620Z,99763.97
2023-02-05T18:00:40.678Z,99777.00
2023-02-05T18:03:09.114Z,99768.44
2023-02-05T18:05:37.267Z,99776.06
2023-02-05T18:08:06.667Z,99779.59
2023-02-05T18:10:35.429Z,99782.25
2023-02-05T18:13:03.570Z,99777.16
2023-02-05T18:15:33.947Z,99771.69
2023-02-05T18:18:02.943Z,99770.03
2023-02-05T18:20:31.178Z,99771.63
2023-02-05T18:22:59.547Z,99791.00
2023-02-05T18:25:27.430Z,99780.66
2023-02-05T18:27:56.364Z,99786.44
2023-02-05T18:30:24.637Z,99795.00
2023-02-05T18:32:54.925Z,99804.16
2023-02-05T18:35:23.700Z,99804.03
2023-02-05T18:37:52.379Z,99801.38
2023-02-05T18:40:20.858Z,99804.16
2023-02-05T18:42:52.141Z,99809.69
2023-02-05T18:45:20.533Z,99816.59
2023-02-05T18:47:49.082Z,99814.75
2023-02-05T18:50:19.419Z,99810.41
2023-02-05T18:52:48.385Z,99817.28
2023-02-05T18:55:16.828Z,99818.66
2023-02-05T18:57:45.404Z,99823.03
2023-02-05T19:00:14.612Z,99822.09
2023-02-05T19:02:42.888Z,99826.34
2023-02-05T19:05:11.761Z,99829.53
2023-02-05T19:07:41.664Z,99835.06
2023-02-05T19:10:09.897Z,99837.69
2023-02-05T19:12:38.233Z,99843.09
2023-02-05T19:15:07.518Z,99843.59
2023-02-05T19:17:35.805Z,99837.16
2023-02-05T19:20:05.957Z,99847.16
2023-02-05T19:22:34.082Z,99856.41
2023-02-05T19:25:04.072Z,99858.88
2023-02-05T19:27:32.428Z,99856.06
2023-02-05T19:30:01.098Z,99855.03
2023-02-05T19:32:29.172Z,99854.94
2023-02-05T19:34:57.193Z,99851.41
2023-02-05T19:37:26.043Z,99848.75
2023-02-05T19:39:54.051Z,99858.09
2023-02-05T19:42:23.494Z,99870.22
2023-02-05T19:44:51.633Z,99872.88
2023-02-05T19:47:21.318Z,99886.19
2023-02-05T19:49:49.341Z,99893.91
2023-02-05T19:52:17.268Z,99887.44
2023-02-05T19:54:45.730Z,99882.34
2023-02-05T19:57:14.544Z,99876.19
2023-02-05T19:59:44.725Z,99876.59
2023-02-05T20:02:16.858Z,99872.16
2023-02-05T20:04:46.501Z,99873.47
2023-02-05T20:07:14.595Z,99873.94
2023-02-05T20:09:42.781Z,99872.06
2023-02-05T20:12:12.999Z,99871.00
2023-02-05T20:14:41.347Z,99871.81
2023-02-05T20:17:16.222Z,99880.03
2023-02-05T20:19:44.390Z,99895.94
2023-02-05T20:22:12.552Z,99904.25
2023-02-05T20:24:41.015Z,99909.50
2023-02-05T20:27:09.135Z,99903.03
2023-02-05T20:29:54.788Z,99908.84
2023-02-05T20:32:24.427Z,99907.31
2023-02-05T20:34:52.792Z,99910.06
2023-02-05T20:37:21.277Z,99907.53
2023-02-05T20:39:50.032Z,99900.59
2023-02-05T20:42:18.159Z,99912.00
2023-02-05T20:44:48.084Z,99915.81
2023-02-05T20:47:16.779Z,99930.06
2023-02-05T20:49:46.992Z,99921.53
2023-02-05T20:52:16.261Z,99919.66
2023-02-05T20:54:45.199Z,99934.38
2023-02-05T20:57:13.228Z,99935.97
2023-02-05T20:59:42.180Z,99933.94
2023-02-05T21:02:11.701Z,99940.47
2023-02-05T21:04:39.956Z,99940.41
2023-02-05T21:07:09.732Z,99918.44
2023-02-05T21:09:37.753Z,99915.53
2023-02-05T21:12:06.237Z,99942.66
2023-02-05T21:14:34.290Z,99946.63
2023-02-05T21:17:02.866Z,99948.84
2023-02-05T21:19:31.173Z,99951.84
2023-02-05T21:21:59.467Z,99960.28
2023-02-05T21:24:29.496Z,99970.94
2023-02-05T21:26:57.853Z,99975.81
2023-02-05T21:29:26.094Z,99981.66
2023-02-05T21:31:55.823Z,99972.28
2023-02-05T21:34:26.950Z,99955.41
2023-02-05T21:36:56.112Z,99969.91
2023-02-05T21:39:25.981Z,99976.38
2023-02-05T21:41:56.006Z,99976.63
2023-02-05T21:44:24.999Z,99991.94
2023-02-05T21:46:55.399Z,99981.50
2023-02-05T21:49:23.669Z,99993.16
2023-02-05T21:51:53.359Z,99995.69
2023-02-05T21:54:25.360Z,99996.88
2023-02-05T21:56:55.975Z,100012.13
2023-02-05T21:59:24.661Z,100008.78
2023-02-05T22:01:54.215Z,99997.84
2023-02-05T22:04:22.340Z,100001.38
2023-02-05T22:06:51.959Z,100003.41
2023-02-05T22:09:20.732Z,100008.78
2023-02-05T22:11:51.177Z,100013.22
2023-02-05T22:14:20.880Z,100008.72
2023-02-05T22:16:49.279Z,100006.50
2023-02-05T22:19:17.414Z,100011.22
2023-02-05T22:21:45.717Z,100010.88
2023-02-05T22:24:17.053Z,100015.06
2023-02-05T22:26:46.776Z,100024.81
2023-02-05T22:29:16.887Z,100033.00
2023-02-05T22:31:47.028Z,100036.84
2023-02-05T22:34:15.136Z,100049.69
2023-02-05T22:36:43.529Z,100047.63
2023-02-05T22:39:11.827Z,100054.94
2023-02-05T22:41:42.204Z,100053.84
2023-02-05T22:44:12.134Z,100055.19
2023-02-05T22:46:42.261Z,100052.78
2023-02-05T22:49:15.221Z,100067.28
2023-02-05T22:51:43.960Z,100067.47
2023-02-05T22:54:14.726Z,100071.56
2023-02-05T22:56:42.753Z,100072.94
2023-02-05T22:59:11.220Z,100075.66
2023-02-05T23:01:40.630Z,100084.09
2023-02-05T23:04:10.602Z,100087.91
2023-02-05T23:06:41.794Z,100091.31
2023-02-05T23:09:11.552Z,100094.44
2023-02-05T23:11:39.796Z,100091.91
2023-02-05T23:14:09.086Z,100092.00
2023-02-05T23:16:40.093Z,100098.00
2023-02-05T23:19:10.453Z,100099.19
2023-02-05T23:21:41.265Z,100107.03
2023-02-05T23:24:10.332Z,100107.97
2023-02-05T23:26:42.700Z,100109.63
2023-02-05T23:29:12.444Z,100118.56
2023-02-05T23:31:41.055Z,100121.69
2023-02-05T23:34:09.411Z,100121.88
2023-02-05T23:36:37.633Z,100117.69
2023-02-05T23:39:07.362Z,100130.41
2023-02-05T23:41:40.132Z,100139.13
2023-02-05T23:44:12.294Z,100120.94
2023-02-05T23:46:40.805Z,100128.69
2023-02-05T23:49:09.246Z,100126.34
2023-02-05T23:51:37.875Z,100122.59
2023-02-05T23:54:09.343Z,100124.16
2023-02-05T23:56:37.751Z,100116.84
2023-02-05T23:59:07.593Z,100112.09
